sensor_id;sensor_type;location;lat;lon;timestamp;pressure;altitude;pressure_sealevel;temperature;humidity
69411;BME280;56604;48.652;9.194;2023-12-14T00:00:29;95159.69;;;4.54;100.00
69411;BME280;56604;48.652;9.194;2023-12-14T00:02:55;95167.59;;;4.59;100.00
69411;BME280;56604;48.652;9.194;2023-12-14T00:05:21;95167.03;;;4.57;100.00
69411;BME280;56604;48.652;9.194;2023-12-14T00:07:46;95162.31;;;4.54;100.00
69411;BME280;56604;48.652;9.194;2023-12-14T00:10:11;95162.38;;;4.59;100.00
69411;BME280;56604;48.652;9.194;2023-12-14T00:12:37;95165.38;;;4.67;100.00
69411;BME280;56604;48.652;9.194;2023-12-14T00:15:03;95168.59;;;4.58;100.00
69411;BME280;56604;48.652;9.194;2023-12-14T00:17:28;95170.59;;;4.67;100.00
69411;BME280;56604;48.652;9.194;2023-12-14T00:19:53;95175.00;;;4.67;100.00
69411;BME280;56604;48.652;9.194;2023-12-14T00:22:19;95174.34;;;4.60;100.00
69411;BME280;56604;48.652;9.194;2023-12-14T00:24:44;95178.47;;;4.56;100.00
69411;BME280;56604;48.652;9.194;2023-12-14T00:27:09;95181.22;;;4.66;100.00
69411;BME280;56604;48.652;9.194;2023-12-14T00:29:34;95185.94;;;4.69;100.00
69411;BME280;56604;48.652;9.194;2023-12-14T00:32:00;95182.16;;;4.60;100.00
69411;BME280;56604;48.652;9.194;2023-12-14T00:34:25;95181.94;;;4.61;100.00
69411;BME280;56604;48.652;9.194;2023-12-14T00:36:50;95195.19;;;4.60;100.00
69411;BME280;56604;48.652;9.194;2023-12-14T00:39:16;95186.34;;;4.61;100.00
69411;BME280;56604;48.652;9.194;2023-12-14T00:41:41;95197.41;;;4.68;100.00
69411;BME280;56604;48.652;9.194;2023-12-14T00:44:06;95199.91;;;4.63;100.00
69411;BME280;56604;48.652;9.194;2023-12-14T00:46:31;95202.13;;;4.71;100.00
69411;BME280;56604;48.652;9.194;2023-12-14T00:48:57;95201.56;;;4.69;100.00
69411;BME280;56604;48.652;9.194;2023-12-14T00:51:22;95205.28;;;4.73;100.00
69411;BME280;56604;48.652;9.194;2023-12-14T00:53:47;95207.34;;;4.71;100.00
69411;BME280;56604;48.652;9.194;2023-12-14T00:56:13;95213.00;;;4.68;100.00
69411;BME280;56604;48.652;9.194;2023-12-14T00:58:38;95212.72;;;4.64;100.00
69411;BME280;56604;48.652;9.194;2023-12-14T01:01:03;95220.25;;;4.66;100.00
69411;BME280;56604;48.652;9.194;2023-12-14T01:03:28;95226.97;;;4.62;100.00
69411;BME280;56604;48.652;9.194;2023-12-14T01:05:54;95233.91;;;4.73;100.00
69411;BME280;56604;48.652;9.194;2023-12-14T01:08:20;95231.78;;;4.70;100.00
69411;BME280;56604;48.652;9.194;2023-12-14T01:10:45;95234.44;;;4.75;100.00
69411;BME280;56604;48.652;9.194;2023-12-14T01:13:10;95233.19;;;4.78;100.00
69411;BME280;56604;48.652;9.194;2023-12-14T01:15:36;95237.00;;;4.70;100.00
69411;BME280;56604;48.652;9.194;2023-12-14T01:18:01;95239.13;;;4.73;100.00
69411;BME280;56604;48.652;9.194;2023-12-14T01:20:26;95247.47;;;4.75;100.00
69411;BME280;56604;48.652;9.194;2023-12-14T01:22:52;95254.50;;;4.74;100.00
69411;BME280;56604;48.652;9.194;2023-12-14T01:25:17;95252.22;;;4.78;100.00
69411;BME280;56604;48.652;9.194;2023-12-14T01:27:42;95260.19;;;4.88;100.00
69411;BME280;56604;48.652;9.194;2023-12-14T01:30:08;95267.13;;;4.83;100.00
69411;BME280;56604;48.652;9.194;2023-12-14T01:32:33;95272.34;;;4.83;100.00
69411;BME280;56604;48.652;9.194;2023-12-14T01:34:59;95280.44;;;4.86;100.00
69411;BME280;56604;48.652;9.194;2023-12-14T01:37:24;95277.63;;;4.88;100.00
69411;BME280;56604;48.652;9.194;2023-12-14T01:39:49;95290.81;;;4.98;100.00
69411;BME280;56604;48.652;9.194;2023-12-14T01:42:14;95285.28;;;4.94;100.00
69411;BME280;56604;48.652;9.194;2023-12-14T01:44:40;95294.28;;;4.87;100.00
69411;BME280;56604;48.652;9.194;2023-12-14T01:47:05;95304.06;;;4.96;100.00
69411;BME280;56604;48.652;9.194;2023-12-14T01:49:30;95300.91;;;4.94;100.00
69411;BME280;56604;48.652;9.194;2023-12-14T01:51:56;95293.97;;;5.00;100.00
69411;BME280;56604;48.652;9.194;2023-12-14T01:54:21;95303.59;;;5.00;100.00
69411;BME280;56604;48.652;9.194;2023-12-14T01:56:46;95305.00;;;4.90;100.00
69411;BME280;56604;48.652;9.194;2023-12-14T01:59:12;95300.69;;;4.96;100.00
69411;BME280;56604;48.652;9.194;2023-12-14T02:04:05;95301.53;;;5.02;100.00
69411;BME280;56604;48.652;9.194;2023-12-14T02:06:33;95303.28;;;4.96;100.00
69411;BME280;56604;48.652;9.194;2023-12-14T02:08:59;95311.31;;;4.94;100.00
69411;BME280;56604;48.652;9.194;2023-12-14T02:11:24;95316.06;;;4.97;100.00
69411;BME280;56604;48.652;9.194;2023-12-14T02:13:49;95313.69;;;4.96;100.00
69411;BME280;56604;48.652;9.194;2023-12-14T02:16:15;95311.31;;;4.94;100.00
69411;BME280;56604;48.652;9.194;2023-12-14T02:18:40;95320.47;;;4.97;100.00
69411;BME280;56604;48.652;9.194;2023-12-14T02:21:06;95321.59;;;5.01;100.00
69411;BME280;56604;48.652;9.194;2023-12-14T02:23:31;95318.44;;;4.99;100.00
69411;BME280;56604;48.652;9.194;2023-12-14T02:25:56;95322.06;;;4.98;100.00
69411;BME280;56604;48.652;9.194;2023-12-14T02:28:22;95325.94;;;4.95;100.00
69411;BME280;56604;48.652;9.194;2023-12-14T02:30:47;95326.47;;;4.97;100.00
69411;BME280;56604;48.652;9.194;2023-12-14T02:33:12;95330.88;;;4.97;100.00
69411;BME280;56604;48.652;9.194;2023-12-14T02:35:38;95331.38;;;4.94;100.00
69411;BME280;56604;48.652;9.194;2023-12-14T02:38:03;95327.41;;;4.91;100.00
69411;BME280;56604;48.652;9.194;2023-12-14T02:40:28;95328.44;;;4.90;100.00
69411;BME280;56604;48.652;9.194;2023-12-14T02:42:54;95332.72;;;4.96;100.00
69411;BME280;56604;48.652;9.194;2023-12-14T02:45:19;95331.84;;;4.91;100.00
69411;BME280;56604;48.652;9.194;2023-12-14T02:47:44;95338.63;;;4.92;100.00
69411;BME280;56604;48.652;9.194;2023-12-14T02:50:12;95335.31;;;4.96;100.00
69411;BME280;56604;48.652;9.194;2023-12-14T02:52:37;95337.03;;;4.91;100.00
69411;BME280;56604;48.652;9.194;2023-12-14T02:55:02;95346.69;;;4.90;100.00
69411;BME280;56604;48.652;9.194;2023-12-14T02:57:28;95350.94;;;4.96;100.00
69411;BME280;56604;48.652;9.194;2023-12-14T02:59:53;95348.91;;;4.99;100.00
69411;BME280;56604;48.652;9.194;2023-12-14T03:02:18;95346.91;;;5.06;100.00
69411;BME280;56604;48.652;9.194;2023-12-14T03:04:44;95353.72;;;5.07;100.00
69411;BME280;56604;48.652;9.194;2023-12-14T03:07:09;95353.16;;;5.05;100.00
69411;BME280;56604;48.652;9.194;2023-12-14T03:09:34;95354.16;;;5.04;100.00
69411;BME280;56604;48.652;9.194;2023-12-14T03:12:00;95360.50;;;5.08;100.00
69411;BME280;56604;48.652;9.194;2023-12-14T03:14:25;95368.78;;;5.05;100.00
69411;BME280;56604;48.652;9.194;2023-12-14T03:16:51;95364.69;;;5.09;100.00
69411;BME280;56604;48.652;9.194;2023-12-14T03:19:16;95367.28;;;5.09;100.00
69411;BME280;56604;48.652;9.194;2023-12-14T03:21:44;95371.22;;;5.11;100.00
69411;BME280;56604;48.652;9.194;2023-12-14T03:24:10;95380.66;;;5.12;100.00
69411;BME280;56604;48.652;9.194;2023-12-14T03:26:35;95385.38;;;5.15;100.00
69411;BME280;56604;48.652;9.194;2023-12-14T03:29:01;95387.13;;;5.10;100.00
69411;BME280;56604;48.652;9.194;2023-12-14T03:31:26;95399.41;;;5.14;100.00
69411;BME280;56604;48.652;9.194;2023-12-14T03:33:51;95397.53;;;5.10;100.00
69411;BME280;56604;48.652;9.194;2023-12-14T03:36:17;95401.81;;;5.16;100.00
69411;BME280;56604;48.652;9.194;2023-12-14T03:38:42;95407.00;;;5.16;100.00
69411;BME280;56604;48.652;9.194;2023-12-14T03:41:07;95412.78;;;5.18;100.00
69411;BME280;56604;48.652;9.194;2023-12-14T03:43:32;95406.84;;;5.23;100.00
69411;BME280;56604;48.652;9.194;2023-12-14T03:45:58;95419.41;;;5.26;100.00
69411;BME280;56604;48.652;9.194;2023-12-14T03:48:23;95414.44;;;5.24;100.00
69411;BME280;56604;48.652;9.194;2023-12-14T03:50:48;95421.78;;;5.27;100.00
69411;BME280;56604;48.652;9.194;2023-12-14T03:53:13;95425.19;;;5.28;100.00
69411;BME280;56604;48.652;9.194;2023-12-14T03:55:39;95427.47;;;5.24;100.00
69411;BME280;56604;48.652;9.194;2023-12-14T03:58:04;95438.44;;;5.26;100.00
69411;BME280;56604;48.652;9.194;2023-12-14T04:00:29;95447.28;;;5.25;100.00
69411;BME280;56604;48.652;9.194;2023-12-14T04:02:55;95443.41;;;5.28;100.00
69411;BME280;56604;48.652;9.194;2023-12-14T04:05:20;95453.28;;;5.26;100.00
69411;BME280;56604;48.652;9.194;2023-12-14T04:07:45;95454.63;;;5.28;100.00
69411;BME280;56604;48.652;9.194;2023-12-14T04:10:12;95459.38;;;5.31;100.00
69411;BME280;56604;48.652;9.194;2023-12-14T04:12:38;95462.91;;;5.25;100.00
69411;BME280;56604;48.652;9.194;2023-12-14T04:15:04;95468.22;;;5.30;100.00
69411;BME280;56604;48.652;9.194;2023-12-14T04:17:30;95473.13;;;5.27;100.00
69411;BME280;56604;48.652;9.194;2023-12-14T04:19:55;95469.78;;;5.31;100.00
69411;BME280;56604;48.652;9.194;2023-12-14T04:22:20;95476.34;;;5.34;100.00
69411;BME280;56604;48.652;9.194;2023-12-14T04:24:46;95478.41;;;5.32;100.00
69411;BME280;56604;48.652;9.194;2023-12-14T04:27:11;95484.06;;;5.29;100.00
69411;BME280;56604;48.652;9.194;2023-12-14T04:29:37;95491.19;;;5.33;100.00
69411;BME280;56604;48.652;9.194;2023-12-14T04:32:02;95493.25;;;5.31;100.00
69411;BME280;56604;48.652;9.194;2023-12-14T04:34:28;95497.34;;;5.27;100.00
69411;BME280;56604;48.652;9.194;2023-12-14T04:36:53;95501.31;;;5.30;100.00
69411;BME280;56604;48.652;9.194;2023-12-14T04:39:22;95497.19;;;5.34;100.00
69411;BME280;56604;48.652;9.194;2023-12-14T04:41:47;95504.22;;;5.33;100.00
69411;BME280;56604;48.652;9.194;2023-12-14T04:44:13;95506.84;;;5.33;100.00
69411;BME280;56604;48.652;9.194;2023-12-14T04:46:38;95507.47;;;5.40;100.00
69411;BME280;56604;48.652;9.194;2023-12-14T04:49:03;95513.97;;;5.38;100.00
69411;BME280;56604;48.652;9.194;2023-12-14T04:51:29;95514.09;;;5.31;100.00
69411;BME280;56604;48.652;9.194;2023-12-14T04:53:57;95514.66;;;5.33;100.00
69411;BME280;56604;48.652;9.194;2023-12-14T04:56:22;95523.56;;;5.37;100.00
69411;BME280;56604;48.652;9.194;2023-12-14T04:58:48;95521.53;;;5.39;100.00
69411;BME280;56604;48.652;9.194;2023-12-14T05:01:13;95521.44;;;5.34;100.00
69411;BME280;56604;48.652;9.194;2023-12-14T05:03:39;95530.75;;;5.30;100.00
69411;BME280;56604;48.652;9.194;2023-12-14T05:06:05;95524.50;;;5.31;100.00
69411;BME280;56604;48.652;9.194;2023-12-14T05:08:30;95533.84;;;5.27;100.00
69411;BME280;56604;48.652;9.194;2023-12-14T05:10:56;95546.97;;;5.32;100.00
69411;BME280;56604;48.652;9.194;2023-12-14T05:13:21;95541.41;;;5.29;100.00
69411;BME280;56604;48.652;9.194;2023-12-14T05:15:46;95547.59;;;5.39;100.00
69411;BME280;56604;48.652;9.194;2023-12-14T05:18:11;95558.50;;;5.36;100.00
69411;BME280;56604;48.652;9.194;2023-12-14T05:20:37;95560.00;;;5.32;100.00
69411;BME280;56604;48.652;9.194;2023-12-14T05:23:02;95558.84;;;5.28;100.00
69411;BME280;56604;48.652;9.194;2023-12-14T05:25:28;95562.50;;;5.27;100.00
69411;BME280;56604;48.652;9.194;2023-12-14T05:27:53;95572.91;;;5.27;100.00
69411;BME280;56604;48.652;9.194;2023-12-14T05:30:18;95577.41;;;5.32;100.00
69411;BME280;56604;48.652;9.194;2023-12-14T05:32:44;95576.16;;;5.34;100.00
69411;BME280;56604;48.652;9.194;2023-12-14T05:35:10;95570.97;;;5.34;100.00
69411;BME280;56604;48.652;9.194;2023-12-14T05:37:35;95573.03;;;5.32;100.00
69411;BME280;56604;48.652;9.194;2023-12-14T05:40:01;95581.38;;;5.34;100.00
69411;BME280;56604;48.652;9.194;2023-12-14T05:42:27;95588.44;;;5.22;100.00
69411;BME280;56604;48.652;9.194;2023-12-14T05:44:52;95596.06;;;5.24;100.00
69411;BME280;56604;48.652;9.194;2023-12-14T05:47:18;95601.47;;;5.22;100.00
69411;BME280;56604;48.652;9.194;2023-12-14T05:49:43;95606.78;;;5.27;100.00
69411;BME280;56604;48.652;9.194;2023-12-14T05:52:09;95605.44;;;5.25;100.00
69411;BME280;56604;48.652;9.194;2023-12-14T05:54:38;95613.13;;;5.31;100.00
69411;BME280;56604;48.652;9.194;2023-12-14T05:57:05;95619.94;;;5.32;100.00
69411;BME280;56604;48.652;9.194;2023-12-14T05:59:30;95623.06;;;5.34;100.00
69411;BME280;56604;48.652;9.194;2023-12-14T06:01:57;95626.47;;;5.35;100.00
69411;BME280;56604;48.652;9.194;2023-12-14T06:04:23;95629.22;;;5.28;100.00
69411;BME280;56604;48.652;9.194;2023-12-14T06:06:48;95629.66;;;5.37;100.00
69411;BME280;56604;48.652;9.194;2023-12-14T06:09:13;95638.25;;;5.37;100.00
69411;BME280;56604;48.652;9.194;2023-12-14T06:11:38;95635.97;;;5.53;100.00
69411;BME280;56604;48.652;9.194;2023-12-14T06:14:04;95639.22;;;5.89;100.00
69411;BME280;56604;48.652;9.194;2023-12-14T06:16:29;95634.47;;;5.57;100.00
69411;BME280;56604;48.652;9.194;2023-12-14T06:18:54;95643.78;;;5.53;100.00
69411;BME280;56604;48.652;9.194;2023-12-14T06:21:20;95657.81;;;5.52;100.00
69411;BME280;56604;48.652;9.194;2023-12-14T06:23:45;95660.56;;;5.45;100.00
69411;BME280;56604;48.652;9.194;2023-12-14T06:26:11;95666.09;;;5.49;100.00
69411;BME280;56604;48.652;9.194;2023-12-14T06:28:36;95662.97;;;5.47;100.00
69411;BME280;56604;48.652;9.194;2023-12-14T06:31:01;95672.69;;;5.39;100.00
69411;BME280;56604;48.652;9.194;2023-12-14T06:33:27;95673.50;;;5.40;100.00
69411;BME280;56604;48.652;9.194;2023-12-14T06:35:52;95678.38;;;5.36;100.00
69411;BME280;56604;48.652;9.194;2023-12-14T06:38:17;95684.28;;;5.44;100.00
69411;BME280;56604;48.652;9.194;2023-12-14T06:40:42;95687.88;;;5.43;100.00
69411;BME280;56604;48.652;9.194;2023-12-14T06:43:08;95691.72;;;5.40;100.00
69411;BME280;56604;48.652;9.194;2023-12-14T06:45:36;95699.56;;;5.40;100.00
69411;BME280;56604;48.652;9.194;2023-12-14T06:48:01;95706.13;;;5.43;100.00
69411;BME280;56604;48.652;9.194;2023-12-14T06:50:28;95709.53;;;5.43;100.00
69411;BME280;56604;48.652;9.194;2023-12-14T06:52:53;95715.09;;;5.47;100.00
69411;BME280;56604;48.652;9.194;2023-12-14T06:55:18;95719.41;;;5.41;100.00
69411;BME280;56604;48.652;9.194;2023-12-14T06:57:44;95728.59;;;5.44;100.00
69411;BME280;56604;48.652;9.194;2023-12-14T07:00:12;95729.59;;;5.43;100.00
69411;BME280;56604;48.652;9.194;2023-12-14T07:02:38;95734.34;;;5.46;100.00
69411;BME280;56604;48.652;9.194;2023-12-14T07:05:03;95737.66;;;5.41;100.00
69411;BME280;56604;48.652;9.194;2023-12-14T07:07:29;95740.00;;;5.43;100.00
69411;BME280;56604;48.652;9.194;2023-12-14T07:09:54;95747.38;;;5.46;100.00
69411;BME280;56604;48.652;9.194;2023-12-14T07:12:19;95759.28;;;5.41;100.00
69411;BME280;56604;48.652;9.194;2023-12-14T07:14:45;95758.84;;;5.45;100.00
69411;BME280;56604;48.652;9.194;2023-12-14T07:17:10;95766.19;;;5.48;100.00
69411;BME280;56604;48.652;9.194;2023-12-14T07:19:35;95775.72;;;5.42;100.00
69411;BME280;56604;48.652;9.194;2023-12-14T07:22:01;95778.19;;;5.49;100.00
69411;BME280;56604;48.652;9.194;2023-12-14T07:24:26;95789.41;;;5.49;100.00
69411;BME280;56604;48.652;9.194;2023-12-14T07:26:51;95780.25;;;5.47;100.00
69411;BME280;56604;48.652;9.194;2023-12-14T07:29:17;95794.97;;;5.53;100.00
69411;BME280;56604;48.652;9.194;2023-12-14T07:31:42;95797.59;;;5.53;100.00
69411;BME280;56604;48.652;9.194;2023-12-14T07:34:07;95803.59;;;5.53;100.00
69411;BME280;56604;48.652;9.194;2023-12-14T07:36:33;95806.31;;;5.58;100.00
69411;BME280;56604;48.652;9.194;2023-12-14T07:38:58;95809.13;;;5.57;100.00
69411;BME280;56604;48.652;9.194;2023-12-14T07:41:25;95814.69;;;5.60;100.00
69411;BME280;56604;48.652;9.194;2023-12-14T07:43:54;95817.06;;;5.62;100.00
69411;BME280;56604;48.652;9.194;2023-12-14T07:46:20;95825.94;;;5.61;100.00
69411;BME280;56604;48.652;9.194;2023-12-14T07:48:45;95827.03;;;5.65;100.00
69411;BME280;56604;48.652;9.194;2023-12-14T07:51:10;95833.97;;;5.59;100.00
69411;BME280;56604;48.652;9.194;2023-12-14T07:53:36;95836.81;;;5.58;100.00
69411;BME280;56604;48.652;9.194;2023-12-14T07:56:02;95839.50;;;5.63;100.00
69411;BME280;56604;48.652;9.194;2023-12-14T07:58:28;95847.44;;;5.68;100.00
69411;BME280;56604;48.652;9.194;2023-12-14T08:00:53;95843.72;;;5.64;100.00
69411;BME280;56604;48.652;9.194;2023-12-14T08:03:18;95850.97;;;5.62;100.00
69411;BME280;56604;48.652;9.194;2023-12-14T08:05:43;95850.31;;;5.67;100.00
69411;BME280;56604;48.652;9.194;2023-12-14T08:08:09;95851.75;;;5.74;100.00
69411;BME280;56604;48.652;9.194;2023-12-14T08:10:34;95863.69;;;5.70;100.00
69411;BME280;56604;48.652;9.194;2023-12-14T08:12:59;95869.22;;;5.85;100.00
69411;BME280;56604;48.652;9.194;2023-12-14T08:15:25;95869.66;;;5.82;100.00
69411;BME280;56604;48.652;9.194;2023-12-14T08:17:50;95871.38;;;5.89;100.00
69411;BME280;56604;48.652;9.194;2023-12-14T08:20:15;95873.19;;;5.88;100.00
69411;BME280;56604;48.652;9.194;2023-12-14T08:22:41;95879.56;;;5.92;100.00
69411;BME280;56604;48.652;9.194;2023-12-14T08:25:11;95877.50;;;5.94;100.00
69411;BME280;56604;48.652;9.194;2023-12-14T08:27:36;95880.09;;;6.06;100.00
69411;BME280;56604;48.652;9.194;2023-12-14T08:30:01;95876.81;;;6.11;100.00
69411;BME280;56604;48.652;9.194;2023-12-14T08:32:27;95881.38;;;6.15;100.00
69411;BME280;56604;48.652;9.194;2023-12-14T08:34:52;95887.59;;;6.14;100.00
69411;BME280;56604;48.652;9.194;2023-12-14T08:37:18;95901.22;;;6.16;100.00
69411;BME280;56604;48.652;9.194;2023-12-14T08:39:43;95903.69;;;6.23;100.00
69411;BME280;56604;48.652;9.194;2023-12-14T08:42:08;95919.13;;;6.24;100.00
69411;BME280;56604;48.652;9.194;2023-12-14T08:44:38;95920.97;;;6.24;100.00
69411;BME280;56604;48.652;9.194;2023-12-14T08:47:04;95926.25;;;6.41;100.00
69411;BME280;56604;48.652;9.194;2023-12-14T08:49:30;95926.72;;;6.38;100.00
69411;BME280;56604;48.652;9.194;2023-12-14T08:51:55;95934.56;;;6.38;100.00
69411;BME280;56604;48.652;9.194;2023-12-14T08:54:21;95933.16;;;6.47;100.00
69411;BME280;56604;48.652;9.194;2023-12-14T08:56:46;95939.03;;;6.54;100.00
69411;BME280;56604;48.652;9.194;2023-12-14T08:59:11;95948.56;;;6.60;100.00
69411;BME280;56604;48.652;9.194;2023-12-14T09:01:37;95955.41;;;6.61;100.00
69411;BME280;56604;48.652;9.194;2023-12-14T09:04:02;95967.31;;;6.57;100.00
69411;BME280;56604;48.652;9.194;2023-12-14T09:06:27;95969.47;;;6.60;100.00
69411;BME280;56604;48.652;9.194;2023-12-14T09:08:53;95977.41;;;6.65;100.00
69411;BME280;56604;48.652;9.194;2023-12-14T09:11:18;95974.44;;;6.73;100.00
69411;BME280;56604;48.652;9.194;2023-12-14T09:13:44;95985.34;;;6.70;100.00
69411;BME280;56604;48.652;9.194;2023-12-14T09:16:09;95986.69;;;6.85;100.00
69411;BME280;56604;48.652;9.194;2023-12-14T09:18:34;95985.63;;;6.97;100.00
69411;BME280;56604;48.652;9.194;2023-12-14T09:20:59;95990.28;;;6.95;100.00
69411;BME280;56604;48.652;9.194;2023-12-14T09:23:25;96009.94;;;6.98;100.00
69411;BME280;56604;48.652;9.194;2023-12-14T09:25:50;96002.81;;;7.22;100.00
69411;BME280;56604;48.652;9.194;2023-12-14T09:28:16;96016.84;;;7.04;100.00
69411;BME280;56604;48.652;9.194;2023-12-14T09:30:41;96026.38;;;7.10;100.00
69411;BME280;56604;48.652;9.194;2023-12-14T09:33:06;96034.59;;;7.02;100.00
69411;BME280;56604;48.652;9.194;2023-12-14T09:35:34;96027.91;;;6.94;100.00
69411;BME280;56604;48.652;9.194;2023-12-14T09:38:00;96039.19;;;6.83;100.00
69411;BME280;56604;48.652;9.194;2023-12-14T09:40:26;96029.16;;;6.92;100.00
69411;BME280;56604;48.652;9.194;2023-12-14T09:42:51;96029.97;;;6.92;100.00
69411;BME280;56604;48.652;9.194;2023-12-14T09:45:17;96033.78;;;7.02;100.00
69411;BME280;56604;48.652;9.194;2023-12-14T09:47:44;96033.53;;;7.15;100.00
69411;BME280;56604;48.652;9.194;2023-12-14T09:50:10;96031.81;;;7.20;100.00
69411;BME280;56604;48.652;9.194;2023-12-14T09:52:35;96043.13;;;6.97;100.00
69411;BME280;56604;48.652;9.194;2023-12-14T09:55:01;96039.38;;;7.34;100.00
69411;BME280;56604;48.652;9.194;2023-12-14T09:57:29;96037.06;;;7.49;100.00
69411;BME280;56604;48.652;9.194;2023-12-14T09:59:54;96042.66;;;7.41;100.00
69411;BME280;56604;48.652;9.194;2023-12-14T10:02:24;96046.09;;;7.30;100.00
69411;BME280;56604;48.652;9.194;2023-12-14T10:04:50;96047.22;;;7.34;100.00
69411;BME280;56604;48.652;9.194;2023-12-14T10:07:15;96062.16;;;7.50;100.00
69411;BME280;56604;48.652;9.194;2023-12-14T10:09:41;96061.59;;;7.60;100.00
69411;BME280;56604;48.652;9.194;2023-12-14T10:12:08;96066.28;;;7.46;100.00
69411;BME280;56604;48.652;9.194;2023-12-14T10:14:35;96068.38;;;7.61;100.00
69411;BME280;56604;48.652;9.194;2023-12-14T10:17:17;96076.25;;;7.61;100.00
69411;BME280;56604;48.652;9.194;2023-12-14T10:19:45;96077.59;;;7.63;100.00
69411;BME280;56604;48.652;9.194;2023-12-14T10:22:11;96074.69;;;7.48;100.00
69411;BME280;56604;48.652;9.194;2023-12-14T10:24:36;96073.84;;;7.59;100.00
69411;BME280;56604;48.652;9.194;2023-12-14T10:27:06;96084.97;;;7.66;100.00
69411;BME280;56604;48.652;9.194;2023-12-14T10:29:36;96080.34;;;8.02;100.00
69411;BME280;56604;48.652;9.194;2023-12-14T10:32:03;96076.03;;;8.59;100.00
69411;BME280;56604;48.652;9.194;2023-12-14T10:34:31;96081.22;;;8.92;100.00
69411;BME280;56604;48.652;9.194;2023-12-14T10:36:57;96080.19;;;9.15;100.00
69411;BME280;56604;48.652;9.194;2023-12-14T10:39:22;96081.47;;;9.13;99.01
69411;BME280;56604;48.652;9.194;2023-12-14T10:41:48;96080.56;;;9.46;98.83
69411;BME280;56604;48.652;9.194;2023-12-14T10:44:16;96087.03;;;9.38;97.48
69411;BME280;56604;48.652;9.194;2023-12-14T10:46:43;96096.19;;;9.58;96.74
69411;BME280;56604;48.652;9.194;2023-12-14T10:49:11;96108.13;;;9.05;97.01
69411;BME280;56604;48.652;9.194;2023-12-14T10:51:37;96095.13;;;8.76;100.00
69411;BME280;56604;48.652;9.194;2023-12-14T10:54:08;96091.31;;;8.33;100.00
69411;BME280;56604;48.652;9.194;2023-12-14T10:56:33;96092.94;;;8.34;100.00
69411;BME280;56604;48.652;9.194;2023-12-14T10:58:59;96094.69;;;8.28;97.23
69411;BME280;56604;48.652;9.194;2023-12-14T11:01:25;96103.59;;;8.44;100.00
69411;BME280;56604;48.652;9.194;2023-12-14T11:03:55;96108.81;;;8.44;100.00
69411;BME280;56604;48.652;9.194;2023-12-14T11:08:53;96101.75;;;8.62;100.00
69411;BME280;56604;48.652;9.194;2023-12-14T11:11:20;96106.91;;;8.56;100.00
69411;BME280;56604;48.652;9.194;2023-12-14T11:13:54;96114.06;;;8.44;100.00
69411;BME280;56604;48.652;9.194;2023-12-14T11:16:23;96115.66;;;8.45;100.00
69411;BME280;56604;48.652;9.194;2023-12-14T11:24:18;96115.47;;;8.86;100.00
69411;BME280;56604;48.652;9.194;2023-12-14T11:26:43;96114.41;;;9.04;100.00
69411;BME280;56604;48.652;9.194;2023-12-14T11:29:09;96121.78;;;9.07;100.00
69411;BME280;56604;48.652;9.194;2023-12-14T11:31:34;96117.97;;;9.14;100.00
69411;BME280;56604;48.652;9.194;2023-12-14T11:34:00;96121.00;;;9.06;99.56
69411;BME280;56604;48.652;9.194;2023-12-14T11:36:26;96132.00;;;9.25;98.65
69411;BME280;56604;48.652;9.194;2023-12-14T11:38:52;96138.53;;;9.44;99.42
69411;BME280;56604;48.652;9.194;2023-12-14T11:41:20;96139.88;;;9.47;99.16
69411;BME280;56604;48.652;9.194;2023-12-14T11:43:46;96149.84;;;9.45;96.98
69411;BME280;56604;48.652;9.194;2023-12-14T11:46:11;96152.19;;;9.08;95.27
69411;BME280;56604;48.652;9.194;2023-12-14T11:48:36;96149.16;;;8.94;96.53
69411;BME280;56604;48.652;9.194;2023-12-14T11:51:02;96153.72;;;9.04;98.36
69411;BME280;56604;48.652;9.194;2023-12-14T11:53:29;96157.03;;;9.16;97.42
69411;BME280;56604;48.652;9.194;2023-12-14T11:55:55;96154.28;;;9.06;97.26
69411;BME280;56604;48.652;9.194;2023-12-14T11:58:20;96154.41;;;8.94;97.38
69411;BME280;56604;48.652;9.194;2023-12-14T12:00:45;96155.66;;;8.91;98.01
69411;BME280;56604;48.652;9.194;2023-12-14T12:03:17;96163.53;;;8.74;97.51
69411;BME280;56604;48.652;9.194;2023-12-14T12:05:46;96161.06;;;8.68;100.00
69411;BME280;56604;48.652;9.194;2023-12-14T12:08:13;96164.41;;;8.63;98.99
69411;BME280;56604;48.652;9.194;2023-12-14T12:10:39;96164.72;;;8.67;98.53
69411;BME280;56604;48.652;9.194;2023-12-14T12:13:11;96173.94;;;8.52;99.68
69411;BME280;56604;48.652;9.194;2023-12-14T12:15:37;96178.59;;;8.50;99.52
69411;BME280;56604;48.652;9.194;2023-12-14T12:18:06;96183.94;;;8.27;99.57
69411;BME280;56604;48.652;9.194;2023-12-14T12:20:32;96182.91;;;8.28;100.00
69411;BME280;56604;48.652;9.194;2023-12-14T12:22:57;96184.81;;;8.32;100.00
69411;BME280;56604;48.652;9.194;2023-12-14T12:25:23;96192.91;;;8.31;99.84
69411;BME280;56604;48.652;9.194;2023-12-14T12:27:48;96182.44;;;8.60;98.76
69411;BME280;56604;48.652;9.194;2023-12-14T12:30:13;96193.38;;;8.28;93.53
69411;BME280;56604;48.652;9.194;2023-12-14T12:32:40;96196.31;;;8.60;91.54
69411;BME280;56604;48.652;9.194;2023-12-14T12:35:06;96191.41;;;8.64;91.11
69411;BME280;56604;48.652;9.194;2023-12-14T12:37:31;96195.53;;;8.60;88.42
69411;BME280;56604;48.652;9.194;2023-12-14T12:39:56;96193.56;;;8.38;87.78
69411;BME280;56604;48.652;9.194;2023-12-14T12:42:22;96190.81;;;8.16;90.07
69411;BME280;56604;48.652;9.194;2023-12-14T12:44:47;96201.84;;;7.89;91.54
69411;BME280;56604;48.652;9.194;2023-12-14T12:47:13;96201.41;;;7.81;91.42
69411;BME280;56604;48.652;9.194;2023-12-14T12:49:38;96198.94;;;7.74;92.63
69411;BME280;56604;48.652;9.194;2023-12-14T12:52:03;96205.63;;;7.82;93.04
69411;BME280;56604;48.652;9.194;2023-12-14T12:54:31;96192.88;;;7.74;91.37
69411;BME280;56604;48.652;9.194;2023-12-14T12:56:57;96201.34;;;7.64;90.67
69411;BME280;56604;48.652;9.194;2023-12-14T12:59:23;96207.94;;;7.66;92.58
69411;BME280;56604;48.652;9.194;2023-12-14T13:01:48;96207.47;;;7.70;90.75
69411;BME280;56604;48.652;9.194;2023-12-14T13:04:20;96208.88;;;7.60;92.04